createdAt,value
2022-10-14T00:00:59.143Z,66.60
2022-10-14T00:03:53.278Z,67.30
2022-10-14T00:06:31.589Z,54.90
2022-10-14T00:09:09.783Z,50.80
2022-10-14T00:11:44.614Z,52.80
2022-10-14T00:14:23.967Z,50.40
2022-10-14T00:17:03.138Z,52.50
2022-10-14T00:19:41.786Z,53.00
2022-10-14T00:22:19.228Z,54.80
2022-10-14T00:24:55.804Z,55.80
2022-10-14T00:27:32.543Z,53.70
2022-10-14T00:30:34.148Z,49.30
2022-10-14T00:33:07.471Z,51.60
2022-10-14T00:35:44.153Z,49.50
2022-10-14T00:38:18.539Z,51.90
2022-10-14T00:40:55.882Z,57.80
2022-10-14T00:43:53.048Z,53.90
2022-10-14T00:46:30.711Z,53.10
2022-10-14T00:49:11.798Z,51.90
2022-10-14T00:51:52.080Z,52.50
2022-10-14T00:54:28.171Z,50.00
2022-10-14T00:57:07.087Z,52.70
2022-10-14T00:59:42.813Z,52.10
2022-10-14T01:02:20.812Z,52.00
2022-10-14T01:04:58.207Z,50.80
2022-10-14T01:07:56.868Z,51.10
2022-10-14T01:10:39.790Z,48.60
2022-10-14T01:13:24.770Z,50.70
2022-10-14T01:16:15.295Z,49.30
2022-10-14T01:19:06.414Z,52.50
2022-10-14T01:21:47.568Z,50.80
2022-10-14T01:24:39.887Z,49.10
2022-10-14T01:27:55.684Z,51.60
2022-10-14T01:30:32.408Z,52.80
2022-10-14T01:33:22.985Z,49.00
2022-10-14T01:36:13.785Z,48.40
2022-10-14T01:38:57.343Z,49.40
2022-10-14T01:41:41.365Z,49.70
2022-10-14T01:44:18.583Z,50.90
2022-10-14T01:46:56.081Z,51.40
2022-10-14T01:49:33.052Z,52.40
2022-10-14T01:52:15.473Z,49.80
2022-10-14T01:54:58.725Z,53.80
2022-10-14T01:57:42.394Z,54.10
2022-10-14T02:00:27.455Z,53.00
2022-10-14T02:03:04.098Z,57.90
2022-10-14T02:05:46.941Z,58.00
2022-10-14T02:08:32.131Z,56.40
2022-10-14T02:14:32.590Z,59.10
2022-10-14T02:17:10.595Z,52.20
2022-10-14T02:19:56.474Z,54.40
2022-10-14T02:22:42.808Z,56.20
2022-10-14T02:25:23.144Z,67.30
2022-10-14T02:28:00.742Z,67.50
2022-10-14T02:30:50.229Z,73.40
2022-10-14T02:33:35.797Z,72.50
2022-10-14T02:39:16.154Z,63.70
2022-10-14T02:41:50.559Z,72.70
2022-10-14T02:44:29.216Z,88.90
2022-10-14T02:47:04.328Z,75.20
2022-10-14T02:49:39.176Z,72.20
2022-10-14T02:52:13.159Z,62.90
2022-10-14T02:54:50.672Z,65.50
2022-10-14T02:57:24.514Z,71.40
2022-10-14T03:00:00.852Z,61.30
2022-10-14T03:02:37.248Z,65.70
2022-10-14T03:05:20.178Z,60.00
2022-10-14T03:07:55.040Z,76.10
2022-10-14T03:10:34.317Z,59.40
2022-10-14T03:13:15.192Z,56.70
2022-10-14T03:15:55.828Z,58.90
2022-10-14T03:18:32.853Z,53.10
2022-10-14T03:21:07.566Z,58.90
2022-10-14T03:23:47.716Z,53.00
2022-10-14T03:26:24.266Z,56.60
2022-10-14T03:28:58.846Z,48.20
2022-10-14T03:31:35.423Z,46.00
2022-10-14T03:34:12.344Z,49.20
2022-10-14T03:36:48.931Z,47.20
2022-10-14T03:39:31.777Z,48.90
2022-10-14T03:42:28.785Z,42.50
2022-10-14T03:45:06.556Z,45.70
2022-10-14T03:47:40.163Z,55.20
2022-10-14T03:50:15.062Z,45.60
2022-10-14T03:52:55.637Z,46.60
2022-10-14T03:55:33.089Z,47.80
2022-10-14T03:58:06.395Z,44.70
2022-10-14T04:00:44.320Z,48.10
2022-10-14T04:03:50.158Z,60.00
2022-10-14T04:06:29.093Z,50.00
2022-10-14T04:09:28.428Z,44.10
2022-10-14T04:12:05.567Z,47.40
2022-10-14T04:14:46.660Z,49.30
2022-10-14T04:17:30.620Z,45.30
2022-10-14T04:20:30.605Z,46.60
2022-10-14T04:23:08.297Z,46.20
2022-10-14T04:25:44.128Z,45.00
2022-10-14T04:28:48.120Z,47.10
2022-10-14T04:31:26.468Z,45.20
2022-10-14T04:34:00.754Z,46.20
2022-10-14T04:36:36.451Z,42.10
2022-10-14T04:39:17.167Z,46.60
2022-10-14T04:41:53.351Z,48.20
2022-10-14T04:44:30.057Z,50.80
2022-10-14T04:47:33.149Z,46.70
2022-10-14T04:50:13.518Z,44.70
2022-10-14T04:52:52.655Z,41.70
2022-10-14T04:55:27.054Z,42.80
2022-10-14T04:58:27.998Z,40.50
2022-10-14T05:01:02.153Z,45.40
2022-10-14T05:03:36.047Z,40.20
2022-10-14T05:09:20.139Z,42.20
2022-10-14T05:11:55.398Z,39.30
2022-10-14T05:14:56.556Z,42.10
2022-10-14T05:17:30.188Z,40.10
2022-10-14T05:20:08.375Z,41.20
2022-10-14T05:22:44.313Z,43.10
2022-10-14T05:28:40.746Z,40.60
2022-10-14T05:31:15.655Z,40.00
2022-10-14T05:33:51.610Z,37.90
2022-10-14T05:36:25.111Z,41.80
2022-10-14T05:39:26.862Z,45.20
2022-10-14T05:42:53.115Z,39.80
2022-10-14T05:45:57.575Z,40.00
2022-10-14T05:49:23.347Z,43.60
2022-10-14T05:52:45.740Z,41.30
2022-10-14T05:55:21.537Z,45.00
2022-10-14T05:58:45.648Z,41.60
2022-10-14T06:01:43.599Z,39.30
2022-10-14T06:04:49.396Z,47.70
2022-10-14T06:07:25.627Z,47.30
2022-10-14T06:14:10.151Z,42.50
2022-10-14T06:16:43.507Z,39.40
2022-10-14T06:19:20.136Z,41.20
2022-10-14T06:21:54.489Z,40.40
2022-10-14T06:24:33.223Z,39.80
2022-10-14T06:27:11.017Z,40.60
2022-10-14T06:30:09.325Z,41.50
2022-10-14T06:32:42.637Z,41.30
2022-10-14T06:35:41.178Z,43.00
2022-10-14T06:39:07.077Z,43.30
2022-10-14T06:42:34.114Z,42.20
2022-10-14T06:45:16.115Z,44.70
2022-10-14T06:47:51.646Z,43.60
2022-10-14T06:50:51.226Z,44.10
2022-10-14T06:54:13.823Z,41.50
2022-10-14T06:56:51.226Z,40.90
2022-10-14T07:09:41.516Z,46.80
2022-10-14T07:12:42.656Z,49.50
2022-10-14T07:18:41.455Z,45.80
2022-10-14T07:21:24.191Z,44.80
2022-10-14T07:24:26.621Z,46.60
2022-10-14T07:27:05.725Z,44.50
2022-10-14T07:29:44.444Z,42.00
2022-10-14T07:35:49.800Z,45.90
2022-10-14T07:38:28.067Z,41.90
2022-10-14T07:41:30.514Z,45.50
2022-10-14T07:48:55.849Z,43.50
2022-10-14T07:51:54.616Z,48.40
2022-10-14T07:55:17.753Z,45.40
2022-10-14T07:57:51.770Z,42.10
2022-10-14T08:00:34.406Z,42.80
2022-10-14T08:03:10.906Z,44.50
2022-10-14T08:05:48.274Z,45.50
2022-10-14T08:08:32.201Z,44.10
2022-10-14T08:11:13.295Z,42.10
2022-10-14T08:13:50.255Z,46.10
2022-10-14T08:20:03.520Z,42.10
2022-10-14T08:22:37.560Z,46.80
2022-10-14T08:25:13.485Z,51.70
2022-10-14T08:27:54.998Z,56.10
2022-10-14T08:30:29.256Z,43.00
2022-10-14T08:33:27.182Z,44.80
2022-10-14T08:39:31.006Z,40.90
2022-10-14T08:46:06.182Z,52.40
2022-10-14T08:56:06.846Z,42.00
2022-10-14T08:58:42.264Z,42.30
2022-10-14T09:01:45.961Z,44.70
2022-10-14T09:04:22.226Z,42.20
2022-10-14T09:07:25.246Z,42.90
2022-10-14T09:10:00.998Z,38.00
2022-10-14T09:12:43.334Z,40.80
2022-10-14T09:15:29.791Z,37.30
2022-10-14T09:18:29.937Z,37.10
2022-10-14T09:21:06.940Z,35.90
2022-10-14T09:24:29.641Z,43.30
2022-10-14T09:27:30.812Z,37.30
2022-10-14T09:30:15.013Z,37.20
2022-10-14T09:33:05.128Z,34.90
2022-10-14T09:35:45.665Z,36.10
2022-10-14T09:38:52.893Z,36.40
2022-10-14T09:41:35.937Z,33.70
2022-10-14T09:44:36.771Z,37.70
2022-10-14T09:47:40.279Z,35.00
2022-10-14T09:50:27.365Z,36.50
2022-10-14T09:53:33.125Z,34.40
2022-10-14T09:56:15.356Z,33.20
2022-10-14T09:59:18.731Z,28.50
2022-10-14T10:01:56.659Z,29.30
2022-10-14T10:04:49.810Z,33.90
2022-10-14T10:07:45.577Z,28.60
2022-10-14T10:10:32.275Z,28.70
2022-10-14T10:13:28.061Z,27.90
2022-10-14T10:19:57.576Z,29.50
2022-10-14T10:22:55.280Z,26.50
2022-10-14T10:25:36.391Z,31.00
2022-10-14T10:28:33.053Z,29.10
2022-10-14T10:31:20.749Z,26.30
2022-10-14T10:34:10.525Z,27.80
2022-10-14T10:36:53.142Z,28.40
2022-10-14T10:39:34.299Z,29.40
2022-10-14T10:42:39.336Z,26.80
2022-10-14T10:45:22.910Z,27.80
2022-10-14T10:48:03.558Z,28.50
2022-10-14T10:50:58.228Z,30.20
2022-10-14T10:54:05.110Z,28.60
2022-10-14T10:56:44.616Z,29.80
2022-10-14T11:02:59.702Z,27.10
2022-10-14T11:06:43.596Z,28.00
2022-10-14T11:09:44.065Z,27.60
2022-10-14T11:18:54.126Z,24.50
2022-10-14T11:21:51.358Z,23.90
2022-10-14T11:24:34.917Z,27.60
2022-10-14T11:27:17.000Z,26.70
2022-10-14T11:30:14.370Z,28.30
2022-10-14T11:33:04.050Z,25.20
2022-10-14T11:36:06.597Z,28.80
2022-10-14T11:39:03.324Z,26.80
2022-10-14T11:41:53.188Z,25.60
2022-10-14T11:45:02.006Z,28.40
2022-10-14T11:51:43.488Z,25.20
2022-10-14T11:54:49.134Z,30.20
2022-10-14T11:57:38.800Z,24.40
2022-10-14T12:00:42.322Z,24.00
2022-10-14T12:03:25.683Z,24.10
2022-10-14T12:09:10.780Z,23.70
2022-10-14T12:11:48.500Z,22.40
2022-10-14T12:17:59.250Z,26.40
2022-10-14T12:20:44.905Z,23.60
2022-10-14T12:23:30.849Z,22.40
2022-10-14T12:26:49.329Z,20.30
2022-10-14T12:29:55.374Z,22.40
2022-10-14T12:32:34.156Z,23.80
2022-10-14T12:35:56.200Z,25.10
2022-10-14T12:39:30.015Z,20.40
2022-10-14T12:42:28.505Z,20.10
2022-10-14T12:45:03.249Z,20.10
2022-10-14T12:47:41.943Z,23.00
2022-10-14T12:50:57.059Z,21.20
2022-10-14T12:53:34.334Z,19.60
2022-10-14T12:56:58.201Z,25.50
2022-10-14T13:00:18.576Z,21.20
2022-10-14T13:03:27.527Z,21.50
2022-10-14T13:06:43.788Z,21.60
2022-10-14T13:12:47.190Z,22.00
2022-10-14T13:20:22.530Z,21.40
2022-10-14T13:22:57.970Z,25.90
2022-10-14T13:26:03.792Z,25.10
2022-10-14T13:28:45.805Z,22.60
2022-10-14T13:31:32.229Z,20.90
2022-10-14T13:37:43.299Z,25.50
2022-10-14T13:43:53.603Z,20.90
2022-10-14T13:46:38.334Z,26.30
2022-10-14T13:49:43.885Z,21.40
2022-10-14T13:52:43.667Z,35.50
2022-10-14T13:55:30.246Z,20.50
2022-10-14T13:58:43.478Z,29.20
2022-10-14T14:01:18.167Z,20.20
2022-10-14T14:11:18.638Z,21.60
2022-10-14T14:18:55.715Z,17.60
2022-10-14T14:21:39.926Z,19.70
2022-10-14T14:24:30.748Z,19.90
2022-10-14T14:27:05.756Z,24.80
2022-10-14T14:30:03.548Z,23.80
2022-10-14T14:32:47.520Z,22.30
2022-10-14T14:35:22.966Z,21.80
2022-10-14T14:38:01.881Z,22.00
2022-10-14T14:41:24.582Z,20.50
2022-10-14T14:44:30.992Z,22.20
2022-10-14T14:47:12.036Z,21.60
2022-10-14T14:54:09.706Z,21.20
2022-10-14T14:56:47.896Z,23.20
2022-10-14T15:00:00.937Z,25.40
2022-10-14T15:02:38.197Z,21.60
2022-10-14T15:05:38.147Z,23.10
2022-10-14T15:08:26.038Z,24.90
2022-10-14T15:11:08.863Z,25.00
2022-10-14T15:14:22.141Z,25.30
2022-10-14T15:16:55.978Z,28.80
2022-10-14T15:20:01.629Z,23.50
2022-10-14T15:22:47.666Z,24.00
2022-10-14T15:25:32.080Z,28.50
2022-10-14T15:28:07.239Z,28.00
2022-10-14T15:37:27.511Z,31.70
2022-10-14T15:40:22.089Z,34.60
2022-10-14T15:43:00.459Z,33.60
2022-10-14T15:46:18.746Z,34.90
2022-10-14T15:48:56.226Z,39.40
2022-10-14T15:55:03.341Z,38.30
2022-10-14T15:57:40.587Z,38.30
2022-10-14T16:03:53.098Z,38.40
2022-10-14T16:06:29.259Z,40.70
2022-10-14T16:09:06.431Z,39.20
2022-10-14T16:11:42.259Z,37.30
2022-10-14T16:14:42.886Z,38.80
2022-10-14T16:17:28.611Z,45.80
2022-10-14T16:20:02.228Z,49.20
2022-10-14T16:25:59.011Z,56.10
2022-10-14T16:28:32.304Z,43.50
2022-10-14T16:31:12.152Z,34.50
2022-10-14T16:33:50.603Z,38.60
2022-10-14T16:36:49.169Z,37.10
2022-10-14T16:40:15.853Z,37.30
2022-10-14T16:43:43.746Z,37.80
2022-10-14T16:46:16.969Z,36.60
2022-10-14T16:51:59.263Z,43.70
2022-10-14T16:54:59.051Z,51.50
2022-10-14T16:57:36.971Z,52.60
2022-10-14T17:03:04.850Z,58.00
2022-10-14T17:05:40.458Z,58.50
2022-10-14T17:08:41.889Z,60.20
2022-10-14T17:11:16.799Z,66.80
2022-10-14T17:16:57.263Z,58.60
2022-10-14T17:19:55.660Z,58.80
2022-10-14T17:23:01.594Z,60.20
2022-10-14T17:25:59.436Z,58.70
2022-10-14T17:29:20.670Z,61.90
2022-10-14T17:31:56.538Z,44.60
2022-10-14T17:34:28.651Z,36.90
2022-10-14T17:37:02.886Z,38.50
2022-10-14T17:40:29.098Z,45.50
2022-10-14T17:43:05.951Z,41.60
2022-10-14T17:45:38.908Z,41.80
2022-10-14T17:48:13.852Z,46.10
2022-10-14T17:51:02.271Z,44.20
2022-10-14T17:53:36.735Z,46.20
2022-10-14T17:56:43.530Z,48.80
2022-10-14T17:59:24.220Z,44.40
2022-10-14T18:02:48.683Z,44.00
2022-10-14T18:06:38.113Z,41.50
2022-10-14T18:09:36.864Z,50.30
2022-10-14T18:12:53.297Z,50.30
2022-10-14T18:15:28.253Z,47.30
2022-10-14T18:18:33.129Z,46.20
2022-10-14T18:21:10.461Z,42.80
2022-10-14T18:23:47.140Z,42.40
2022-10-14T18:26:30.037Z,50.80
2022-10-14T18:29:52.263Z,45.80
2022-10-14T18:33:15.017Z,53.30
2022-10-14T18:35:52.474Z,44.30
2022-10-14T18:39:22.446Z,42.50
2022-10-14T18:42:00.098Z,57.10
2022-10-14T18:45:02.497Z,43.10
2022-10-14T18:47:39.186Z,43.30
2022-10-14T18:50:44.258Z,39.80
2022-10-14T18:53:44.641Z,43.30
2022-10-14T18:56:46.115Z,50.30
2022-10-14T18:59:30.140Z,47.20
2022-10-14T19:02:29.215Z,45.20
2022-10-14T19:05:08.714Z,43.30
2022-10-14T19:07:44.646Z,46.10
2022-10-14T19:10:28.156Z,49.60
2022-10-14T19:13:06.471Z,55.10
2022-10-14T19:15:52.857Z,50.10
2022-10-14T19:18:30.044Z,48.90
2022-10-14T19:21:12.544Z,50.80
2022-10-14T19:23:47.191Z,54.50
2022-10-14T19:26:35.115Z,72.40
2022-10-14T19:29:24.464Z,60.10
2022-10-14T19:32:09.535Z,51.80
2022-10-14T19:35:08.908Z,50.50
2022-10-14T19:37:44.970Z,48.90
2022-10-14T19:40:23.705Z,46.70
2022-10-14T19:43:26.614Z,47.70
2022-10-14T19:46:27.042Z,50.30
2022-10-14T19:49:06.765Z,55.80
2022-10-14T19:51:43.319Z,257.00
2022-10-14T19:54:27.042Z,278.10
2022-10-14T19:57:31.007Z,59.40
2022-10-14T20:03:16.678Z,83.30
2022-10-14T20:06:14.802Z,71.80
2022-10-14T20:08:46.770Z,69.30
2022-10-14T20:11:26.544Z,69.90
2022-10-14T20:14:24.324Z,70.60
2022-10-14T20:16:58.828Z,68.70
2022-10-14T20:19:33.107Z,72.50
2022-10-14T20:22:10.356Z,74.40
2022-10-14T20:24:44.519Z,69.60
2022-10-14T20:27:16.381Z,71.90
2022-10-14T20:30:16.694Z,73.70
2022-10-14T20:33:40.342Z,77.60
2022-10-14T20:36:19.955Z,114.60
2022-10-14T20:39:21.630Z,112.80
2022-10-14T20:41:58.895Z,84.10
2022-10-14T20:47:47.325Z,88.20
2022-10-14T20:50:31.207Z,89.20
2022-10-14T20:56:37.402Z,82.00
2022-10-14T20:59:42.489Z,80.80
2022-10-14T21:02:49.379Z,87.30
2022-10-14T21:05:23.814Z,88.40
2022-10-14T21:08:26.193Z,95.00
2022-10-14T21:11:07.062Z,100.10
2022-10-14T21:13:45.315Z,105.00
2022-10-14T21:16:44.609Z,107.50
2022-10-14T21:19:22.351Z,156.30
2022-10-14T21:25:03.512Z,115.40
2022-10-14T21:27:38.794Z,134.60
2022-10-14T21:33:17.295Z,125.70
2022-10-14T21:35:50.376Z,111.60
2022-10-14T21:38:23.762Z,110.40
2022-10-14T21:40:56.598Z,113.60
2022-10-14T21:43:32.228Z,108.00
2022-10-14T21:46:35.430Z,109.60
2022-10-14T21:49:15.057Z,102.80
2022-10-14T21:51:54.314Z,105.20
2022-10-14T21:54:33.322Z,101.00
2022-10-14T21:57:08.332Z,105.50
2022-10-14T22:00:06.303Z,108.70
2022-10-14T22:02:45.912Z,107.40
2022-10-14T22:05:17.742Z,98.50
2022-10-14T22:07:54.008Z,101.70
2022-10-14T22:10:56.466Z,101.80
2022-10-14T22:13:56.489Z,103.00
2022-10-14T22:16:40.540Z,104.90
2022-10-14T22:19:15.645Z,107.20
2022-10-14T22:21:55.825Z,109.00
2022-10-14T22:24:36.499Z,107.30
2022-10-14T22:27:09.504Z,107.60
2022-10-14T22:29:50.138Z,110.00
2022-10-14T22:39:30.866Z,112.90
2022-10-14T22:42:05.553Z,114.70
2022-10-14T22:45:06.747Z,113.40
2022-10-14T22:47:42.358Z,124.60
2022-10-14T22:50:15.741Z,132.40
2022-10-14T22:52:48.946Z,134.40
2022-10-14T22:55:25.792Z,138.40
2022-10-14T22:58:01.352Z,135.30
2022-10-14T23:00:35.272Z,123.20
2022-10-14T23:03:12.016Z,145.60
2022-10-14T23:05:54.387Z,141.20
2022-10-14T23:08:31.156Z,144.40
2022-10-14T23:11:12.514Z,139.10
2022-10-14T23:13:48.842Z,144.60
2022-10-14T23:16:28.669Z,141.50
2022-10-14T23:19:08.005Z,141.10
2022-10-14T23:22:10.061Z,134.90
2022-10-14T23:24:48.646Z,137.80
2022-10-14T23:27:23.011Z,140.70
2022-10-14T23:29:57.534Z,128.20
2022-10-14T23:32:35.528Z,142.00
2022-10-14T23:35:16.523Z,136.50
2022-10-14T23:37:54.508Z,122.40
2022-10-14T23:40:35.349Z,122.60
2022-10-14T23:43:31.276Z,125.60
2022-10-14T23:46:07.729Z,127.20
2022-10-14T23:48:55.385Z,114.10
2022-10-14T23:51:43.539Z,108.30
2022-10-14T23:54:21.756Z,104.80
2022-10-14T23:57:22.525Z,98.30
2022-10-14T23:59:58.566Z,106.70
